createdAt,value
2019-01-24T04:26:33.947Z,41.27
2019-01-24T04:29:04.270Z,44.17
2019-01-24T04:31:34.621Z,43.33
2019-01-24T04:34:04.980Z,46.80
2019-01-24T04:36:35.344Z,47.87
2019-01-24T04:39:07.721Z,50.43
2019-01-24T04:41:38.035Z,45.00
2019-01-24T04:44:08.394Z,50.07
2019-01-24T04:46:38.772Z,46.73
2019-01-24T04:49:09.122Z,47.50
2019-01-24T04:51:39.428Z,53.93
2019-01-24T04:54:09.785Z,52.23
2019-01-24T04:56:40.118Z,55.67
2019-01-24T04:59:10.491Z,57.80
2019-01-24T05:01:41.060Z,52.67
2019-01-24T05:04:11.407Z,49.70
2019-01-24T05:06:41.781Z,56.70
2019-01-24T05:09:12.110Z,48.87
2019-01-24T05:11:43.392Z,54.20
2019-01-24T05:14:14.932Z,51.77
2019-01-24T05:16:45.198Z,56.23
2019-01-24T05:19:15.535Z,59.17
2019-01-24T05:21:45.877Z,54.80
2019-01-24T05:24:16.208Z,53.43
2019-01-24T05:26:46.550Z,60.57
2019-01-24T05:29:16.997Z,57.87
2019-01-24T05:31:47.813Z,56.03
2019-01-24T05:34:18.129Z,55.87
2019-01-24T05:36:48.516Z,53.23
2019-01-24T05:39:19.134Z,57.73
2019-01-24T05:41:49.918Z,59.40
2019-01-24T05:44:20.241Z,58.90
2019-01-24T05:46:50.581Z,61.53
2019-01-24T05:49:20.881Z,57.70
2019-01-24T05:51:51.436Z,65.00
2019-01-24T05:54:21.754Z,55.17
2019-01-24T05:56:53.079Z,63.83
2019-01-24T05:59:23.591Z,57.17
2019-01-24T06:01:54.171Z,51.97
2019-01-24T06:04:24.478Z,57.23
2019-01-24T06:06:54.860Z,56.70
2019-01-24T06:09:25.173Z,52.43
2019-01-24T06:11:55.525Z,56.57
2019-01-24T06:14:25.922Z,58.90
2019-01-24T06:16:56.297Z,61.97
2019-01-24T06:19:26.575Z,55.90
2019-01-24T06:21:57.389Z,58.50
2019-01-24T06:24:27.781Z,58.20
2019-01-24T06:26:59.226Z,54.17
2019-01-24T06:29:29.503Z,56.53
2019-01-24T06:31:59.966Z,56.07
2019-01-24T06:34:30.218Z,53.63
2019-01-24T06:37:00.581Z,55.93
2019-01-24T06:39:41.974Z,55.60
2019-01-24T06:42:12.349Z,58.50
2019-01-24T06:44:42.835Z,55.30
2019-01-24T06:47:13.236Z,52.90
2019-01-24T06:49:43.640Z,57.60
2019-01-24T06:52:14.094Z,64.50
2019-01-24T06:54:44.414Z,59.07
2019-01-24T06:57:14.810Z,60.70
2019-01-24T06:59:45.163Z,56.10
2019-01-24T07:02:15.515Z,59.77
2019-01-24T07:04:45.831Z,61.57
2019-01-24T07:07:16.194Z,59.83
2019-01-24T07:09:46.504Z,64.60
2019-01-24T07:12:16.885Z,64.13
2019-01-24T07:14:47.122Z,61.90
2019-01-24T07:17:17.374Z,64.60
2019-01-24T07:19:47.653Z,66.30
2019-01-24T07:22:17.997Z,65.80
2019-01-24T07:24:48.321Z,65.17
2019-01-24T07:27:18.643Z,66.40
2019-01-24T07:29:48.945Z,67.80
2019-01-24T07:32:19.267Z,75.00
2019-01-24T07:34:49.590Z,67.43
2019-01-24T07:37:19.937Z,71.60
2019-01-24T07:39:50.240Z,63.47
2019-01-24T07:42:20.560Z,66.17
2019-01-24T07:44:50.891Z,70.23
2019-01-24T07:47:21.244Z,70.03
2019-01-24T07:49:51.574Z,73.63
2019-01-24T07:52:21.892Z,71.60
2019-01-24T07:54:53.244Z,63.53
2019-01-24T07:57:24.488Z,68.97
2019-01-24T07:59:55.303Z,69.70
2019-01-24T08:02:26.830Z,65.60
2019-01-24T08:04:57.130Z,70.77
2019-01-24T08:07:27.443Z,72.43
2019-01-24T08:09:59.067Z,73.37
2019-01-24T08:12:29.399Z,70.27
2019-01-24T08:14:59.750Z,71.30
2019-01-24T08:17:30.101Z,71.00
2019-01-24T08:20:00.431Z,75.07
2019-01-24T08:22:30.724Z,69.80
2019-01-24T08:25:01.045Z,69.63
2019-01-24T08:27:31.350Z,70.03
2019-01-24T08:30:01.687Z,71.73
2019-01-24T08:32:32.176Z,77.53
2019-01-24T08:35:02.494Z,67.73
2019-01-24T08:37:32.796Z,69.30
2019-01-24T08:40:03.192Z,68.27
2019-01-24T08:42:33.531Z,71.83
2019-01-24T08:45:04.101Z,76.13
2019-01-24T08:47:34.391Z,75.17
2019-01-24T08:50:06.439Z,74.90
2019-01-24T08:52:36.756Z,71.77
2019-01-24T08:55:16.917Z,73.57
2019-01-24T08:57:47.321Z,75.63
2019-01-24T09:00:18.983Z,73.43
2019-01-24T09:02:50.500Z,74.07
2019-01-24T09:05:20.961Z,63.87
2019-01-24T09:07:52.445Z,72.43
2019-01-24T09:10:26.125Z,77.83
2019-01-24T09:12:56.638Z,72.63
2019-01-24T09:15:27.345Z,69.77
2019-01-24T09:17:57.910Z,66.10
2019-01-24T09:20:28.399Z,74.10
2019-01-24T09:22:58.815Z,73.60
2019-01-24T09:25:29.333Z,68.00
2019-01-24T09:27:59.754Z,67.70
2019-01-24T09:30:30.228Z,74.87
2019-01-24T09:33:00.602Z,70.17
2019-01-24T09:35:31.023Z,67.20
2019-01-24T09:38:01.439Z,75.33
2019-01-24T09:40:31.882Z,71.83
2019-01-24T09:43:02.216Z,76.87
2019-01-24T09:45:32.666Z,72.30
2019-01-24T09:48:04.461Z,71.63
2019-01-24T09:50:34.849Z,78.23
2019-01-24T09:53:05.200Z,89.30
2019-01-24T09:55:35.744Z,70.20
2019-01-24T09:58:06.186Z,78.83
2019-01-24T10:00:37.838Z,71.47
2019-01-24T10:03:08.368Z,62.90
2019-01-24T10:05:38.814Z,77.03
2019-01-24T10:08:09.714Z,71.93
2019-01-24T10:10:40.124Z,66.53
2019-01-24T10:13:10.521Z,70.43
2019-01-24T10:15:40.946Z,65.73
2019-01-24T10:18:11.322Z,69.53
2019-01-24T10:20:41.746Z,67.80
2019-01-24T10:23:12.174Z,71.47
2019-01-24T10:25:42.475Z,68.50
2019-01-24T10:28:12.811Z,63.60
2019-01-24T10:30:43.418Z,56.57
2019-01-24T10:33:13.699Z,56.03
2019-01-24T10:35:43.993Z,56.60
2019-01-24T10:38:14.346Z,47.43
2019-01-24T10:40:44.738Z,51.60
2019-01-24T10:43:15.078Z,49.70
2019-01-24T10:45:45.492Z,49.63
2019-01-24T10:48:15.815Z,52.67
2019-01-24T10:50:47.118Z,56.67
2019-01-24T10:53:17.472Z,50.57
2019-01-24T10:55:47.865Z,56.53
2019-01-24T10:58:18.169Z,49.60
2019-01-24T11:00:48.559Z,47.03
2019-01-24T11:03:19.953Z,40.93
2019-01-24T11:05:50.333Z,48.37
2019-01-24T11:08:20.741Z,41.77
2019-01-24T11:10:51.023Z,44.27
2019-01-24T11:13:21.367Z,42.47
2019-01-24T11:15:52.051Z,40.37
2019-01-24T11:18:22.374Z,41.03
2019-01-24T11:20:52.689Z,44.77
2019-01-24T11:23:23.057Z,47.77
2019-01-24T11:25:53.386Z,39.50
2019-01-24T11:28:23.687Z,47.57
2019-01-24T11:30:53.988Z,42.10
2019-01-24T11:33:24.339Z,42.80
2019-01-24T11:35:54.663Z,41.23
2019-01-24T11:38:25.007Z,44.67
2019-01-24T11:40:55.334Z,43.40
2019-01-24T11:43:25.683Z,43.63
2019-01-24T11:45:56.057Z,42.30
2019-01-24T11:48:28.075Z,41.33
2019-01-24T11:51:01.038Z,45.83
2019-01-24T11:53:31.457Z,44.93
2019-01-24T11:56:03.144Z,39.77
2019-01-24T11:58:33.724Z,46.83
2019-01-24T12:01:07.915Z,37.53
2019-01-24T12:03:38.766Z,48.83
2019-01-24T12:06:10.849Z,51.60
2019-01-24T12:08:41.969Z,85.80
2019-01-24T12:11:12.669Z,45.23
2019-01-24T12:13:43.965Z,47.50
2019-01-24T12:16:14.256Z,44.37
2019-01-24T12:18:44.597Z,54.57
2019-01-24T12:21:14.956Z,52.23
2019-01-24T12:23:45.369Z,46.10
2019-01-24T12:26:15.709Z,47.40
2019-01-24T12:28:46.039Z,50.27
2019-01-24T12:31:17.765Z,56.77
2019-01-24T12:33:48.208Z,57.17
2019-01-24T12:36:19.480Z,45.63
2019-01-24T12:38:49.874Z,44.03
2019-01-24T12:41:20.218Z,53.13
2019-01-24T12:43:50.622Z,53.23
2019-01-24T12:46:21.984Z,52.60
2019-01-24T12:48:52.265Z,49.80
2019-01-24T12:51:22.607Z,51.30
2019-01-24T12:53:53.093Z,55.87
2019-01-24T12:56:23.501Z,56.43
2019-01-24T12:58:53.744Z,57.57
2019-01-24T13:01:24.167Z,57.70
2019-01-24T13:03:54.608Z,65.23
2019-01-24T13:06:24.984Z,56.90
2019-01-24T13:08:55.379Z,61.33
2019-01-24T13:11:26.013Z,59.10
2019-01-24T13:13:56.686Z,68.50
2019-01-24T13:16:27.097Z,62.03
2019-01-24T13:18:57.594Z,58.93
2019-01-24T13:21:28.298Z,59.37
2019-01-24T13:23:59.158Z,60.30
2019-01-24T13:26:31.853Z,54.03
2019-01-24T13:29:02.926Z,63.33
2019-01-24T13:31:33.622Z,74.90
2019-01-24T13:34:04.573Z,60.20
2019-01-24T13:36:38.976Z,63.03
2019-01-24T13:39:11.421Z,65.83
2019-01-24T13:41:42.582Z,64.13
2019-01-24T13:44:16.118Z,67.47
2019-01-24T13:46:46.870Z,62.80
2019-01-24T13:49:17.746Z,51.70
2019-01-24T13:51:48.553Z,57.50
2019-01-24T13:54:18.864Z,61.80
2019-01-24T13:56:49.276Z,47.23
2019-01-24T13:59:19.558Z,62.33
2019-01-24T14:01:49.871Z,49.80
2019-01-24T14:04:24.609Z,40.60
2019-01-24T14:06:54.936Z,56.57
2019-01-24T14:09:25.437Z,41.63
2019-01-24T14:11:55.732Z,45.73
2019-01-24T14:14:26.118Z,38.07
2019-01-24T14:16:57.760Z,39.00
2019-01-24T14:19:29.755Z,43.20
2019-01-24T14:22:00.049Z,39.67
2019-01-24T14:24:30.377Z,35.67
2019-01-24T14:27:00.727Z,29.90
2019-01-24T14:29:31.076Z,31.80
2019-01-24T14:32:01.378Z,32.67
2019-01-24T14:34:31.734Z,29.70
2019-01-24T14:37:02.061Z,30.77
2019-01-24T14:39:32.376Z,27.40
2019-01-24T14:42:02.792Z,32.03
2019-01-24T14:44:33.084Z,37.03
2019-01-24T14:47:04.381Z,42.37
2019-01-24T14:49:34.665Z,40.53
2019-01-24T14:52:08.208Z,37.07
2019-01-24T14:54:38.749Z,42.90
2019-01-24T14:57:09.946Z,45.60
2019-01-24T14:59:40.253Z,40.40
2019-01-24T15:02:13.739Z,39.63
2019-01-24T15:04:44.519Z,65.80
2019-01-24T15:07:14.842Z,51.57
2019-01-24T15:09:45.140Z,44.17
2019-01-24T15:12:15.886Z,36.70
2019-01-24T15:14:46.170Z,35.80
2019-01-24T15:17:16.638Z,34.43
2019-01-24T15:19:47.360Z,35.93
2019-01-24T15:22:19.338Z,37.10
2019-01-24T15:24:49.939Z,32.47
2019-01-24T15:27:20.279Z,36.27
2019-01-24T15:29:50.921Z,40.20
2019-01-24T15:32:21.575Z,39.67
2019-01-24T15:34:52.830Z,39.83
2019-01-24T15:37:23.695Z,35.77
2019-01-24T15:39:56.612Z,34.17
2019-01-24T15:42:27.528Z,32.47
2019-01-24T15:44:58.265Z,29.87
2019-01-24T15:47:29.081Z,34.13
2019-01-24T15:49:59.351Z,33.20
2019-01-24T15:52:34.028Z,32.83
2019-01-24T15:55:02.314Z,38.93
2019-01-24T15:57:33.575Z,32.93
2019-01-24T16:00:05.598Z,34.27
2019-01-24T16:02:35.913Z,35.90
2019-01-24T16:05:08.252Z,35.27
2019-01-24T16:07:38.629Z,40.73
2019-01-24T16:10:11.436Z,38.23
2019-01-24T16:12:42.050Z,40.00
2019-01-24T16:15:15.855Z,36.00
2019-01-24T16:17:46.327Z,36.50
2019-01-24T16:20:19.431Z,36.23
2019-01-24T16:22:50.384Z,34.17
2019-01-24T16:25:21.048Z,37.10
2019-01-24T16:27:51.898Z,38.77
2019-01-24T16:30:25.086Z,38.03
2019-01-24T16:32:55.501Z,33.00
2019-01-24T16:35:25.836Z,29.07
2019-01-24T16:37:57.720Z,33.60
2019-01-24T16:40:29.133Z,30.93
2019-01-24T16:43:00.861Z,29.10
2019-01-24T16:45:31.960Z,31.80
2019-01-24T16:48:02.278Z,30.37
2019-01-24T16:50:32.591Z,31.80
2019-01-24T16:53:03.031Z,32.27
2019-01-24T16:55:34.325Z,34.13
2019-01-24T16:58:07.378Z,33.27
2019-01-24T17:00:44.739Z,34.03
2019-01-24T17:03:18.066Z,32.83
2019-01-24T17:05:52.489Z,34.50
2019-01-24T17:08:24.214Z,34.17
2019-01-24T17:10:56.417Z,38.37
2019-01-24T17:13:28.276Z,38.50
2019-01-24T17:16:00.134Z,42.30
2019-01-24T17:18:32.858Z,39.33
2019-01-24T17:21:06.312Z,43.83
2019-01-24T17:23:38.653Z,47.33
2019-01-24T17:26:11.095Z,46.20
2019-01-24T17:28:43.216Z,48.90
2019-01-24T17:31:14.252Z,50.87
2019-01-24T17:33:45.878Z,46.83
2019-01-24T17:36:16.347Z,49.03
2019-01-24T17:38:47.340Z,47.10
2019-01-24T17:41:18.508Z,46.83
2019-01-24T17:43:50.487Z,44.13
2019-01-24T17:46:23.557Z,47.33
2019-01-24T17:48:56.419Z,39.07
2019-01-24T17:51:27.258Z,48.43
2019-01-24T17:53:59.023Z,44.20
2019-01-24T17:56:30.165Z,46.63
2019-01-24T17:59:02.907Z,40.90
2019-01-24T18:01:36.109Z,44.63
2019-01-24T18:04:08.739Z,45.53
2019-01-24T18:06:42.776Z,43.10
2019-01-24T18:09:13.905Z,46.23
2019-01-24T18:11:44.602Z,44.13
2019-01-24T18:14:18.151Z,45.10
2019-01-24T18:16:49.233Z,43.53
2019-01-24T18:19:21.051Z,41.90
2019-01-24T18:21:52.735Z,42.93
2019-01-24T18:24:24.430Z,43.37
2019-01-24T18:26:55.853Z,42.43
2019-01-24T18:29:28.115Z,46.07
2019-01-24T18:32:00.681Z,40.40
2019-01-24T18:34:31.744Z,45.87
2019-01-24T18:37:04.577Z,41.60
2019-01-24T18:39:36.459Z,48.67
2019-01-24T18:42:06.965Z,48.10
2019-01-24T18:44:37.336Z,46.67
2019-01-24T18:47:09.332Z,42.73
2019-01-24T18:49:40.372Z,43.33
2019-01-24T18:52:10.770Z,43.17
2019-01-24T18:54:42.057Z,47.80
2019-01-24T18:57:12.579Z,46.90
2019-01-24T18:59:43.716Z,41.30
2019-01-24T19:02:14.538Z,43.83
2019-01-24T19:04:46.320Z,46.40
2019-01-24T19:07:17.134Z,42.40
2019-01-24T19:09:47.886Z,47.33
2019-01-24T19:12:18.534Z,43.77
2019-01-24T19:14:48.972Z,45.20
2019-01-24T19:17:22.697Z,49.97
2019-01-24T19:19:53.746Z,44.67
2019-01-24T19:22:27.439Z,44.67
2019-01-24T19:24:59.922Z,42.53
2019-01-24T19:27:33.217Z,40.43
2019-01-24T19:30:05.757Z,39.27
2019-01-24T19:32:36.518Z,40.43
2019-01-24T19:35:08.719Z,38.90
2019-01-24T19:37:40.196Z,41.03
2019-01-24T19:40:11.787Z,45.50
2019-01-24T19:42:43.116Z,47.53
2019-01-24T19:45:20.511Z,39.67
2019-01-24T19:47:51.917Z,41.43
2019-01-24T19:50:30.288Z,43.10
2019-01-24T19:53:01.653Z,44.77
2019-01-24T19:55:34.299Z,46.50
2019-01-24T19:58:08.495Z,46.67
2019-01-24T20:00:39.821Z,49.37
2019-01-24T20:03:10.694Z,45.93
2019-01-24T20:05:44.203Z,46.50
2019-01-24T20:08:15.133Z,50.40
2019-01-24T20:10:46.000Z,46.47
2019-01-24T20:13:17.913Z,50.50
2019-01-24T20:15:49.093Z,44.10
2019-01-24T20:18:19.861Z,45.87
2019-01-24T20:20:54.016Z,47.80
2019-01-24T20:23:25.744Z,47.60
2019-01-24T20:25:56.964Z,50.27
2019-01-24T20:28:28.124Z,51.17
2019-01-24T20:30:58.862Z,48.03
2019-01-24T20:33:30.239Z,50.27
2019-01-24T20:36:01.621Z,47.23
2019-01-24T20:38:32.879Z,49.30
2019-01-24T20:41:05.952Z,52.03
2019-01-24T20:43:39.333Z,49.60
2019-01-24T20:46:12.929Z,51.83
2019-01-24T20:48:45.503Z,52.53
2019-01-24T20:51:18.591Z,49.40
2019-01-24T20:53:55.066Z,48.27
2019-01-24T20:56:26.068Z,55.30
2019-01-24T20:59:00.472Z,49.70
2019-01-24T21:01:35.213Z,46.13
2019-01-24T21:04:05.747Z,52.10
2019-01-24T21:06:36.872Z,47.27
2019-01-24T21:09:14.652Z,46.90
2019-01-24T21:11:42.089Z,49.03
2019-01-24T21:14:14.512Z,47.17
2019-01-24T21:16:45.161Z,46.67
2019-01-24T21:19:19.003Z,47.67
2019-01-24T21:21:50.388Z,51.67
2019-01-24T21:24:24.209Z,46.57
2019-01-24T21:26:54.590Z,48.93
2019-01-24T21:29:25.005Z,45.73
2019-01-24T21:31:55.308Z,49.80
2019-01-24T21:34:25.933Z,44.80
2019-01-24T21:36:56.316Z,50.53
2019-01-24T21:39:26.639Z,45.00
2019-01-24T21:41:59.426Z,44.57
2019-01-24T21:44:29.849Z,51.03
2019-01-24T21:47:00.513Z,50.27
2019-01-24T21:49:30.823Z,55.23
2019-01-24T21:52:01.101Z,47.27
2019-01-24T21:54:31.862Z,47.10
